CheckWX is a tool to help pilots better visualize weather data.  It is not intended as a substitute for an official pre-flight weather briefing.

01:29:16 UTC

GMTA TAF
Cherif Al Idrissi Airport
Al Hoceima, Morocco
TAF GMTA 232300Z 2400/2506 170007KT CAVOK

Feb-24@
00:00 UTC

Feb-24 @ 00:00 UTC

Feb-25@
06:00 UTC

Feb-25 @ 06:00 UTC

TAF GMTA 232300Z 2400/2506 170007KT CAVOK
Wind
  • 170° at 7 KTS
Conditions
No significant weather
Cloud Levels
  • No significant clouds